createdAt,value
2016-09-22T00:00:10.242Z,26.36
2016-09-22T00:00:50.956Z,26.35
2016-09-22T00:01:31.701Z,26.37
2016-09-22T00:02:12.427Z,26.36
2016-09-22T00:02:53.170Z,26.33
2016-09-22T00:03:33.855Z,26.36
2016-09-22T00:04:14.621Z,26.43
2016-09-22T00:04:55.406Z,26.36
2016-09-22T00:05:36.185Z,26.32
2016-09-22T00:06:16.909Z,26.35
2016-09-22T00:06:57.677Z,26.32
2016-09-22T00:07:38.384Z,26.36
2016-09-22T00:08:20.104Z,26.33
2016-09-22T00:09:00.853Z,26.35
2016-09-22T00:09:41.577Z,26.36
2016-09-22T00:10:22.365Z,26.35
2016-09-22T00:11:03.094Z,26.36
2016-09-22T00:11:43.845Z,26.36
2016-09-22T00:12:24.595Z,26.35
2016-09-22T00:13:05.335Z,26.37
2016-09-22T00:13:46.108Z,26.32
2016-09-22T00:14:26.795Z,26.36
2016-09-22T00:15:07.609Z,26.32
2016-09-22T00:15:48.414Z,26.35
2016-09-22T00:16:29.173Z,26.39
2016-09-22T00:17:09.882Z,26.32
2016-09-22T00:17:50.653Z,26.37
2016-09-22T00:18:31.437Z,26.37
2016-09-22T00:19:12.124Z,26.35
2016-09-22T00:19:52.847Z,26.35
2016-09-22T00:20:33.622Z,26.37
2016-09-22T00:21:14.336Z,26.29
2016-09-22T00:21:55.183Z,26.35
2016-09-22T00:22:35.973Z,26.35
2016-09-22T00:23:16.708Z,26.33
2016-09-22T00:23:57.449Z,26.35
2016-09-22T00:24:38.170Z,26.35
2016-09-22T00:25:18.935Z,26.36
2016-09-22T00:25:59.665Z,26.35
2016-09-22T00:26:40.390Z,26.39
2016-09-22T00:27:21.118Z,26.4
2016-09-22T00:28:01.877Z,26.35
2016-09-22T00:28:42.831Z,26.33
2016-09-22T00:29:23.505Z,26.33
2016-09-22T00:30:04.220Z,26.33
2016-09-22T00:30:44.959Z,26.33
2016-09-22T00:31:25.729Z,26.39
2016-09-22T00:32:06.465Z,26.3
2016-09-22T00:32:47.254Z,26.32
2016-09-22T00:33:28.084Z,26.37
2016-09-22T00:34:08.830Z,26.32
2016-09-22T00:34:49.561Z,26.4
2016-09-22T00:35:30.354Z,26.39
2016-09-22T00:36:11.106Z,26.39
2016-09-22T00:36:51.847Z,26.39
2016-09-22T00:37:32.623Z,26.35
2016-09-22T00:38:13.388Z,26.32
2016-09-22T00:38:54.070Z,26.32
2016-09-22T00:39:34.808Z,26.4
2016-09-22T00:40:15.557Z,26.35
2016-09-22T00:40:56.332Z,26.4
2016-09-22T00:41:37.051Z,26.32
2016-09-22T00:42:17.814Z,26.43
2016-09-22T00:42:58.572Z,26.3
2016-09-22T00:43:39.246Z,26.35
2016-09-22T00:44:19.994Z,26.35
2016-09-22T00:45:00.765Z,26.4
2016-09-22T00:45:41.598Z,26.4
2016-09-22T00:46:22.315Z,26.39
2016-09-22T00:47:03.118Z,26.35
2016-09-22T00:47:43.952Z,26.37
2016-09-22T00:48:24.850Z,26.35
2016-09-22T00:49:05.561Z,26.39
2016-09-22T00:49:46.295Z,26.29
2016-09-22T00:50:26.986Z,26.35
2016-09-22T00:51:07.756Z,26.36
2016-09-22T00:51:48.514Z,26.4
2016-09-22T00:52:29.210Z,26.37
2016-09-22T00:53:09.971Z,26.35
2016-09-22T00:53:50.698Z,26.39
2016-09-22T00:54:31.414Z,26.4
2016-09-22T00:55:12.211Z,26.36
2016-09-22T00:55:52.944Z,26.39
2016-09-22T00:56:33.692Z,26.4
2016-09-22T00:57:14.479Z,26.37
2016-09-22T00:57:55.234Z,26.4
2016-09-22T00:58:35.985Z,26.44
2016-09-22T00:59:16.653Z,26.32
2016-09-22T00:59:57.619Z,26.36
2016-09-22T01:00:38.332Z,26.35
2016-09-22T01:01:19.107Z,26.37
2016-09-22T01:01:59.811Z,26.35
2016-09-22T01:02:40.543Z,26.4
2016-09-22T01:03:21.322Z,26.4
2016-09-22T01:04:02.033Z,26.4
2016-09-22T01:04:42.779Z,26.32
2016-09-22T01:05:23.533Z,26.4
2016-09-22T01:06:04.298Z,26.37
2016-09-22T01:06:45.053Z,26.36
2016-09-22T01:07:25.785Z,26.4
2016-09-22T01:08:06.536Z,26.4
2016-09-22T01:08:47.302Z,26.36
2016-09-22T01:09:28.076Z,26.4
2016-09-22T01:10:08.814Z,26.4
2016-09-22T01:10:49.495Z,26.37
2016-09-22T01:11:30.240Z,26.32
2016-09-22T01:12:10.986Z,26.4
2016-09-22T01:12:51.697Z,26.4
2016-09-22T01:13:32.401Z,26.43
2016-09-22T01:14:13.163Z,26.39
2016-09-22T01:14:53.880Z,26.37
2016-09-22T01:15:34.644Z,26.36
2016-09-22T01:16:15.394Z,26.35
2016-09-22T01:16:56.112Z,26.35
2016-09-22T01:17:36.810Z,26.32
2016-09-22T01:18:17.562Z,26.39
2016-09-22T01:18:58.323Z,26.35
2016-09-22T01:19:39.066Z,26.35
2016-09-22T01:20:19.812Z,26.36
2016-09-22T01:21:00.593Z,26.33
2016-09-22T01:21:41.292Z,26.4
2016-09-22T01:22:22.146Z,26.33
2016-09-22T01:23:03.168Z,26.33
2016-09-22T01:23:43.951Z,26.4
2016-09-22T01:24:24.646Z,26.37
2016-09-22T01:25:05.537Z,26.29
2016-09-22T01:25:46.416Z,26.35
2016-09-22T01:26:27.196Z,26.37
2016-09-22T01:27:07.979Z,26.37
2016-09-22T01:27:48.724Z,26.33
2016-09-22T01:28:29.566Z,26.37
2016-09-22T01:29:10.401Z,26.39
2016-09-22T01:29:51.223Z,26.43
2016-09-22T01:30:31.975Z,26.35
2016-09-22T01:31:12.705Z,26.37
2016-09-22T01:31:53.429Z,26.35
2016-09-22T01:32:34.148Z,26.32
2016-09-22T01:33:14.837Z,26.32
2016-09-22T01:33:55.763Z,26.45
2016-09-22T01:34:36.564Z,26.37
2016-09-22T01:35:17.263Z,26.37
2016-09-22T01:35:57.970Z,26.43
2016-09-22T01:36:38.682Z,26.43
2016-09-22T01:37:19.415Z,26.4
2016-09-22T01:38:00.146Z,26.43
2016-09-22T01:38:40.876Z,26.4
2016-09-22T01:39:21.618Z,26.39
2016-09-22T01:40:02.372Z,26.44
2016-09-22T01:40:43.108Z,26.4
2016-09-22T01:41:23.855Z,26.44
2016-09-22T01:42:04.586Z,26.36
2016-09-22T01:42:45.511Z,26.37
2016-09-22T01:43:26.226Z,26.45
2016-09-22T01:44:06.986Z,26.43
2016-09-22T01:44:47.747Z,26.36
2016-09-22T01:45:28.455Z,26.4
2016-09-22T01:46:09.203Z,26.36
2016-09-22T01:46:49.890Z,26.36
2016-09-22T01:47:30.632Z,26.44
2016-09-22T01:48:11.344Z,26.39
2016-09-22T01:48:52.092Z,26.47
2016-09-22T01:49:32.849Z,26.44
2016-09-22T01:50:13.618Z,26.39
2016-09-22T01:50:54.354Z,26.43
2016-09-22T01:51:35.111Z,26.43
2016-09-22T01:52:15.850Z,26.39
2016-09-22T01:52:56.578Z,26.43
2016-09-22T01:53:37.456Z,26.43
2016-09-22T01:54:18.133Z,26.44
2016-09-22T01:54:58.893Z,26.4
2016-09-22T01:55:39.578Z,26.39
2016-09-22T01:56:20.266Z,26.37
2016-09-22T01:57:01.010Z,26.47
2016-09-22T01:57:41.742Z,26.39
2016-09-22T01:58:22.494Z,26.48
2016-09-22T01:59:03.263Z,26.39
2016-09-22T01:59:43.962Z,26.39
2016-09-22T02:00:24.706Z,26.44
2016-09-22T02:01:05.495Z,26.37
2016-09-22T02:01:46.249Z,26.44
2016-09-22T02:02:26.949Z,26.37
2016-09-22T02:03:07.727Z,26.44
2016-09-22T02:03:48.633Z,26.33
2016-09-22T02:04:29.406Z,26.33
2016-09-22T02:05:10.162Z,26.37
2016-09-22T02:05:50.870Z,26.39
2016-09-22T02:06:31.661Z,26.45
2016-09-22T02:07:12.373Z,26.35
2016-09-22T02:07:53.091Z,26.37
2016-09-22T02:08:33.844Z,26.4
2016-09-22T02:09:14.527Z,26.37
2016-09-22T02:09:55.276Z,26.47
2016-09-22T02:10:36.028Z,26.45
2016-09-22T02:11:16.800Z,26.39
2016-09-22T02:11:57.571Z,26.39
2016-09-22T02:12:38.334Z,26.33
2016-09-22T02:13:19.182Z,26.4
2016-09-22T02:14:00.086Z,26.44
2016-09-22T02:14:40.880Z,26.48
2016-09-22T02:15:21.624Z,26.37
2016-09-22T02:16:02.366Z,26.48
2016-09-22T02:16:43.136Z,26.43
2016-09-22T02:17:23.873Z,26.36
2016-09-22T02:18:04.596Z,26.43
2016-09-22T02:18:45.359Z,26.44
2016-09-22T02:19:26.027Z,26.4
2016-09-22T02:20:06.733Z,26.44
2016-09-22T02:20:47.438Z,26.43
2016-09-22T02:21:28.158Z,26.43
2016-09-22T02:22:08.856Z,26.37
2016-09-22T02:22:49.623Z,26.33
2016-09-22T02:23:30.365Z,26.36
2016-09-22T02:24:11.116Z,26.37
2016-09-22T02:24:51.900Z,26.43
2016-09-22T02:25:32.722Z,26.45
2016-09-22T02:26:13.468Z,26.47
2016-09-22T02:26:54.202Z,26.37
2016-09-22T02:27:34.995Z,26.36
2016-09-22T02:28:15.697Z,26.36
2016-09-22T02:28:56.443Z,26.4
2016-09-22T02:29:37.152Z,26.44
2016-09-22T02:30:17.891Z,26.44
2016-09-22T02:30:58.589Z,26.32
2016-09-22T02:31:39.330Z,26.39
2016-09-22T02:32:20.082Z,26.36
2016-09-22T02:33:00.815Z,26.39
2016-09-22T02:33:41.521Z,26.37
2016-09-22T02:34:22.309Z,26.5
2016-09-22T02:35:03.008Z,26.35
2016-09-22T02:35:43.794Z,26.39
2016-09-22T02:36:24.506Z,26.35
2016-09-22T02:37:05.290Z,26.37
2016-09-22T02:37:46.015Z,26.4
2016-09-22T02:38:26.737Z,26.4
2016-09-22T02:39:07.468Z,26.44
2016-09-22T02:39:48.175Z,26.44
2016-09-22T02:40:28.882Z,26.43
2016-09-22T02:41:09.589Z,26.37
2016-09-22T02:41:50.355Z,26.5
2016-09-22T02:42:31.104Z,26.44
2016-09-22T02:43:11.859Z,26.44
2016-09-22T02:43:52.562Z,26.37
2016-09-22T02:44:33.239Z,26.43
2016-09-22T02:45:13.951Z,26.39
2016-09-22T02:45:54.742Z,26.37
2016-09-22T02:46:35.436Z,26.44
2016-09-22T02:47:16.233Z,26.39
2016-09-22T02:47:56.922Z,26.44
2016-09-22T02:48:37.652Z,26.39
2016-09-22T02:49:18.414Z,26.39
2016-09-22T02:49:59.135Z,26.4
2016-09-22T02:50:39.923Z,26.39
2016-09-22T02:51:20.681Z,26.36
2016-09-22T02:52:01.395Z,26.4
2016-09-22T02:52:42.089Z,26.43
2016-09-22T02:53:22.834Z,26.39
2016-09-22T02:54:03.545Z,26.37
2016-09-22T02:54:44.225Z,26.37
2016-09-22T02:55:24.981Z,26.43
2016-09-22T02:56:05.650Z,26.39
2016-09-22T02:56:46.364Z,26.35
2016-09-22T02:57:27.130Z,26.35
2016-09-22T02:58:07.864Z,26.4
2016-09-22T02:58:48.630Z,26.43
2016-09-22T02:59:29.389Z,26.4
2016-09-22T03:00:10.127Z,26.4
2016-09-22T03:00:50.933Z,26.35
2016-09-22T03:01:31.715Z,26.43
2016-09-22T03:02:12.446Z,26.39
2016-09-22T03:02:53.251Z,26.4
2016-09-22T03:03:33.979Z,26.43
2016-09-22T03:04:14.693Z,26.39
2016-09-22T03:04:55.410Z,26.39
2016-09-22T03:05:36.162Z,26.37
2016-09-22T03:06:16.920Z,26.43
2016-09-22T03:06:57.679Z,26.39
2016-09-22T03:07:38.348Z,26.39
2016-09-22T03:08:19.091Z,26.45
2016-09-22T03:08:59.883Z,26.43
2016-09-22T03:09:40.632Z,26.4
2016-09-22T03:10:21.357Z,26.47
2016-09-22T03:11:02.076Z,26.36
2016-09-22T03:11:42.804Z,26.44
2016-09-22T03:12:23.511Z,26.48
2016-09-22T03:13:04.276Z,26.5
2016-09-22T03:13:44.995Z,26.43
2016-09-22T03:14:25.720Z,26.33
2016-09-22T03:15:06.466Z,26.37
2016-09-22T03:15:47.251Z,26.45
2016-09-22T03:16:27.980Z,26.4
2016-09-22T03:17:08.765Z,26.44
2016-09-22T03:17:49.521Z,26.47
2016-09-22T03:18:30.255Z,26.39
2016-09-22T03:19:11.057Z,26.33
2016-09-22T03:19:51.819Z,26.32
2016-09-22T03:20:32.493Z,26.45
2016-09-22T03:21:13.311Z,26.43
2016-09-22T03:21:54.070Z,26.44
2016-09-22T03:22:34.742Z,26.45
2016-09-22T03:23:15.452Z,26.35
2016-09-22T03:23:56.211Z,26.48
2016-09-22T03:24:36.953Z,26.43
2016-09-22T03:25:17.681Z,26.33
2016-09-22T03:25:58.426Z,26.43
2016-09-22T03:26:39.137Z,26.36
2016-09-22T03:27:19.875Z,26.39
2016-09-22T03:28:00.642Z,26.45
2016-09-22T03:28:41.417Z,26.37
2016-09-22T03:29:22.131Z,26.47
2016-09-22T03:30:02.859Z,26.33
2016-09-22T03:30:43.618Z,26.44
2016-09-22T03:31:24.344Z,26.48
2016-09-22T03:32:05.037Z,26.37
2016-09-22T03:32:45.769Z,26.4
2016-09-22T03:33:26.553Z,26.37
2016-09-22T03:34:07.256Z,26.37
2016-09-22T03:34:48.015Z,26.35
2016-09-22T03:35:28.773Z,26.45
2016-09-22T03:36:09.598Z,26.44
2016-09-22T03:36:50.341Z,26.39
2016-09-22T03:37:31.062Z,26.44
2016-09-22T03:38:11.859Z,26.36
2016-09-22T03:38:52.581Z,26.37
2016-09-22T03:39:33.338Z,26.32
2016-09-22T03:40:14.052Z,26.39
2016-09-22T03:40:54.844Z,26.45
2016-09-22T03:41:35.555Z,26.45
2016-09-22T03:42:16.294Z,26.4
2016-09-22T03:42:57.058Z,26.45
2016-09-22T03:43:37.858Z,26.36
2016-09-22T03:44:18.603Z,26.39
2016-09-22T03:44:59.273Z,26.4
2016-09-22T03:45:40.058Z,26.4
2016-09-22T03:46:20.752Z,26.43
2016-09-22T03:47:01.428Z,26.32
2016-09-22T03:47:42.190Z,26.44
2016-09-22T03:48:22.937Z,26.35
2016-09-22T03:49:03.725Z,26.48
2016-09-22T03:49:44.507Z,26.4
2016-09-22T03:50:25.236Z,26.48
2016-09-22T03:51:05.941Z,26.47
2016-09-22T03:51:46.695Z,26.39
2016-09-22T03:52:27.441Z,26.5
2016-09-22T03:53:08.178Z,26.44
2016-09-22T03:53:48.975Z,26.36
2016-09-22T03:54:29.719Z,26.5
2016-09-22T03:55:10.440Z,26.44
2016-09-22T03:55:51.353Z,26.47
2016-09-22T03:56:32.099Z,26.36
2016-09-22T03:57:12.811Z,26.45
2016-09-22T03:57:53.556Z,26.5
2016-09-22T03:58:34.294Z,26.36
2016-09-22T03:59:15.048Z,26.44
2016-09-22T03:59:55.837Z,26.36
2016-09-22T04:00:36.790Z,26.4
2016-09-22T04:01:17.541Z,26.4
2016-09-22T04:01:58.267Z,26.5
2016-09-22T04:02:39.033Z,26.5
2016-09-22T04:03:19.740Z,26.47
2016-09-22T04:04:00.452Z,26.47
2016-09-22T04:04:41.216Z,26.54
2016-09-22T04:05:21.964Z,26.51
2016-09-22T04:06:02.670Z,26.37
2016-09-22T04:06:43.449Z,26.4
2016-09-22T04:07:24.234Z,26.48
2016-09-22T04:08:04.936Z,26.5
2016-09-22T04:08:45.648Z,26.4
2016-09-22T04:09:26.387Z,26.35
2016-09-22T04:10:07.048Z,26.48
2016-09-22T04:10:48.143Z,26.39
2016-09-22T04:11:28.924Z,26.4
2016-09-22T04:12:09.656Z,26.39
2016-09-22T04:12:50.377Z,26.36
2016-09-22T04:13:31.072Z,26.48
2016-09-22T04:14:11.788Z,26.4
2016-09-22T04:14:52.551Z,26.37
2016-09-22T04:15:33.336Z,26.44
2016-09-22T04:16:14.043Z,26.47
2016-09-22T04:16:54.778Z,26.47
2016-09-22T04:17:35.489Z,26.37
2016-09-22T04:18:16.211Z,26.48
2016-09-22T04:18:56.951Z,26.4
2016-09-22T04:19:37.692Z,26.5
2016-09-22T04:20:18.455Z,26.39
2016-09-22T04:20:59.181Z,26.39
2016-09-22T04:21:39.969Z,26.4
2016-09-22T04:22:20.681Z,26.45
2016-09-22T04:23:01.639Z,26.45
2016-09-22T04:23:42.357Z,26.45
2016-09-22T04:24:23.071Z,26.44
2016-09-22T04:25:03.765Z,26.5
2016-09-22T04:25:44.586Z,26.48
2016-09-22T04:26:25.285Z,26.37
2016-09-22T04:27:06.058Z,26.44
2016-09-22T04:27:46.809Z,26.45
2016-09-22T04:28:27.553Z,26.36
2016-09-22T04:29:08.325Z,26.4
2016-09-22T04:29:49.073Z,26.5
2016-09-22T04:30:29.804Z,26.47
2016-09-22T04:31:10.517Z,26.5
2016-09-22T04:31:51.226Z,26.47
2016-09-22T04:32:31.971Z,26.48
2016-09-22T04:33:12.657Z,26.47
2016-09-22T04:33:53.409Z,26.4
2016-09-22T04:34:34.118Z,26.5
2016-09-22T04:35:14.911Z,26.5
2016-09-22T04:35:55.780Z,26.47
2016-09-22T04:36:36.514Z,26.48
2016-09-22T04:37:17.260Z,26.51
2016-09-22T04:37:58.002Z,26.45
2016-09-22T04:38:38.757Z,26.51
2016-09-22T04:39:19.523Z,26.47
2016-09-22T04:40:00.242Z,26.47
2016-09-22T04:40:40.953Z,26.4
2016-09-22T04:41:21.731Z,26.5
2016-09-22T04:42:02.536Z,26.44
2016-09-22T04:42:43.243Z,26.45
2016-09-22T04:43:23.940Z,26.52
2016-09-22T04:44:04.645Z,26.37
2016-09-22T04:44:45.373Z,26.44
2016-09-22T04:45:26.093Z,26.4
2016-09-22T04:46:07.041Z,26.5
2016-09-22T04:46:47.807Z,26.47
2016-09-22T04:47:28.490Z,26.47
2016-09-22T04:48:09.267Z,26.47
2016-09-22T04:48:49.991Z,26.5
2016-09-22T04:49:30.735Z,26.48
2016-09-22T04:50:11.599Z,26.48
2016-09-22T04:50:52.490Z,26.5
2016-09-22T04:51:33.268Z,26.51
2016-09-22T04:52:13.952Z,26.48
2016-09-22T04:52:54.688Z,26.47
2016-09-22T04:53:35.414Z,26.55
2016-09-22T04:54:16.238Z,26.47
2016-09-22T04:54:57.060Z,26.48
2016-09-22T04:55:37.808Z,26.43
2016-09-22T04:56:18.517Z,26.5
2016-09-22T04:56:59.200Z,26.52
2016-09-22T04:57:39.972Z,26.47
2016-09-22T04:58:20.732Z,26.48
2016-09-22T04:59:01.483Z,26.54
2016-09-22T04:59:42.238Z,26.5
2016-09-22T05:00:22.922Z,26.52
2016-09-22T05:01:03.670Z,26.51
2016-09-22T05:01:44.393Z,26.51
2016-09-22T05:02:25.156Z,26.5
2016-09-22T05:03:05.880Z,26.5
2016-09-22T05:03:46.625Z,26.52
2016-09-22T05:04:27.362Z,26.54
2016-09-22T05:05:08.073Z,26.51
2016-09-22T05:05:48.849Z,26.47
2016-09-22T05:06:29.586Z,26.51
2016-09-22T05:07:10.318Z,26.45
2016-09-22T05:07:51.098Z,26.47
2016-09-22T05:08:31.856Z,26.47
2016-09-22T05:09:12.613Z,26.52
2016-09-22T05:09:53.366Z,26.48
2016-09-22T05:10:34.021Z,26.55
2016-09-22T05:11:14.714Z,26.51
2016-09-22T05:11:55.453Z,26.44
2016-09-22T05:12:36.146Z,26.6
2016-09-22T05:13:16.857Z,26.52
2016-09-22T05:13:57.553Z,26.57
2016-09-22T05:14:38.308Z,26.5
2016-09-22T05:15:19.037Z,26.57
2016-09-22T05:15:59.787Z,26.51
2016-09-22T05:16:40.531Z,26.58
2016-09-22T05:17:21.280Z,26.55
2016-09-22T05:18:02.063Z,26.51
2016-09-22T05:18:42.771Z,26.52
2016-09-22T05:19:23.483Z,26.55
2016-09-22T05:20:04.235Z,26.48
2016-09-22T05:20:44.976Z,26.55
2016-09-22T05:21:25.677Z,26.52
2016-09-22T05:22:06.367Z,26.52
2016-09-22T05:22:47.135Z,26.54
2016-09-22T05:23:27.875Z,26.55
2016-09-22T05:24:08.630Z,26.55
2016-09-22T05:24:49.377Z,26.52
2016-09-22T05:25:30.116Z,26.52
2016-09-22T05:26:10.874Z,26.52
2016-09-22T05:26:51.568Z,26.52
2016-09-22T05:27:32.260Z,26.51
2016-09-22T05:28:12.986Z,26.55
2016-09-22T05:28:53.698Z,26.65
2016-09-22T05:29:34.412Z,26.55
2016-09-22T05:30:15.117Z,26.55
2016-09-22T05:30:55.867Z,26.57
2016-09-22T05:31:36.630Z,26.57
2016-09-22T05:32:17.339Z,26.57
2016-09-22T05:32:58.073Z,26.52
2016-09-22T05:33:38.842Z,26.48
2016-09-22T05:34:19.556Z,26.54
2016-09-22T05:35:00.304Z,26.54
2016-09-22T05:35:41.082Z,26.5
2016-09-22T05:36:21.823Z,26.58
2016-09-22T05:37:02.654Z,26.51
2016-09-22T05:37:43.335Z,26.57
2016-09-22T05:38:24.080Z,26.51
2016-09-22T05:39:04.857Z,26.57
2016-09-22T05:39:45.595Z,26.57
2016-09-22T05:40:26.374Z,26.52
2016-09-22T05:41:07.151Z,26.54
2016-09-22T05:41:47.887Z,26.58
2016-09-22T05:42:28.611Z,26.57
2016-09-22T05:43:09.354Z,26.58
2016-09-22T05:43:50.088Z,26.6
2016-09-22T05:44:30.876Z,26.62
2016-09-22T05:45:11.586Z,26.52
2016-09-22T05:45:52.341Z,26.54
2016-09-22T05:46:33.149Z,26.62
2016-09-22T05:47:13.891Z,26.58
2016-09-22T05:47:54.607Z,26.52
2016-09-22T05:48:35.334Z,26.52
2016-09-22T05:49:16.025Z,26.58
2016-09-22T05:49:56.778Z,26.51
2016-09-22T05:50:37.506Z,26.62
2016-09-22T05:51:18.226Z,26.62
2016-09-22T05:51:58.917Z,26.62
2016-09-22T05:52:39.657Z,26.63
2016-09-22T05:53:20.451Z,26.6
2016-09-22T05:54:01.194Z,26.57
2016-09-22T05:54:41.867Z,26.55
2016-09-22T05:55:22.619Z,26.63
2016-09-22T05:56:03.368Z,26.57
2016-09-22T05:56:44.097Z,26.57
2016-09-22T05:57:24.845Z,26.57
2016-09-22T05:58:05.585Z,26.63
2016-09-22T05:58:46.433Z,26.62
2016-09-22T05:59:27.226Z,26.58
2016-09-22T06:00:07.961Z,26.65
2016-09-22T06:00:48.797Z,26.58
2016-09-22T06:01:29.562Z,26.57
2016-09-22T06:02:10.264Z,26.62
2016-09-22T06:02:50.983Z,26.67
2016-09-22T06:03:31.760Z,26.62
2016-09-22T06:04:12.491Z,26.6
2016-09-22T06:04:53.227Z,26.65
2016-09-22T06:05:33.998Z,26.65
2016-09-22T06:06:14.756Z,26.57
2016-09-22T06:06:55.481Z,26.63
2016-09-22T06:07:36.255Z,26.58
2016-09-22T06:08:16.936Z,26.58
2016-09-22T06:08:57.683Z,26.58
2016-09-22T06:09:38.519Z,26.65
2016-09-22T06:10:19.256Z,26.6
2016-09-22T06:11:00.071Z,26.63
2016-09-22T06:11:40.812Z,26.62
2016-09-22T06:12:21.568Z,26.65
2016-09-22T06:13:02.296Z,26.65
2016-09-22T06:13:43.021Z,26.6
2016-09-22T06:14:23.758Z,26.63
2016-09-22T06:15:04.518Z,26.67
2016-09-22T06:15:45.281Z,26.58
2016-09-22T06:16:25.995Z,26.62
2016-09-22T06:17:06.715Z,26.57
2016-09-22T06:17:47.409Z,26.57
2016-09-22T06:18:28.125Z,26.63
2016-09-22T06:19:08.912Z,26.6
2016-09-22T06:19:49.693Z,26.63
2016-09-22T06:20:30.429Z,26.65
2016-09-22T06:21:11.195Z,26.63
2016-09-22T06:21:52.005Z,26.58
2016-09-22T06:22:32.728Z,26.66
2016-09-22T06:23:13.499Z,26.63
2016-09-22T06:23:54.190Z,26.65
2016-09-22T06:24:35.001Z,26.65
2016-09-22T06:25:15.749Z,26.55
2016-09-22T06:25:56.512Z,26.65
2016-09-22T06:26:37.261Z,26.63
2016-09-22T06:27:18.012Z,26.58
2016-09-22T06:27:58.800Z,26.62
2016-09-22T06:28:39.587Z,26.58
2016-09-22T06:29:20.322Z,26.62
2016-09-22T06:30:01.113Z,26.57
2016-09-22T06:30:41.894Z,26.6
2016-09-22T06:31:22.645Z,26.57
2016-09-22T06:32:03.373Z,26.58
2016-09-22T06:32:44.175Z,26.58
2016-09-22T06:33:24.950Z,26.57
2016-09-22T06:34:05.680Z,26.63
2016-09-22T06:34:46.426Z,26.58
2016-09-22T06:35:27.206Z,26.57
2016-09-22T06:36:08.021Z,26.57
2016-09-22T06:36:48.800Z,26.6
2016-09-22T06:37:30.462Z,26.63
2016-09-22T06:38:11.226Z,26.55
2016-09-22T06:38:52.000Z,26.65
2016-09-22T06:39:32.766Z,26.58
2016-09-22T06:40:13.468Z,26.57
2016-09-22T06:40:54.241Z,26.58
2016-09-22T06:41:34.947Z,26.6
2016-09-22T06:42:15.996Z,26.6
2016-09-22T06:42:56.935Z,26.58
2016-09-22T06:43:37.735Z,26.57
2016-09-22T06:44:18.433Z,26.62
2016-09-22T06:44:59.150Z,26.57
2016-09-22T06:45:39.882Z,26.6
2016-09-22T06:46:20.670Z,26.6
2016-09-22T06:47:01.382Z,26.63
2016-09-22T06:47:42.135Z,26.62
2016-09-22T06:48:22.947Z,26.55
2016-09-22T06:49:03.662Z,26.57
2016-09-22T06:49:44.396Z,26.63
2016-09-22T06:50:25.118Z,26.62
2016-09-22T06:51:05.864Z,26.6
2016-09-22T06:51:46.636Z,26.58
2016-09-22T06:52:27.340Z,26.6
2016-09-22T06:53:08.087Z,26.66
2016-09-22T06:53:48.886Z,26.73
2016-09-22T06:54:29.712Z,26.75
2016-09-22T06:55:10.796Z,26.69
2016-09-22T06:55:51.523Z,26.67
2016-09-22T06:56:32.260Z,26.7
2016-09-22T06:57:13.039Z,26.67
2016-09-22T06:57:53.760Z,26.7
2016-09-22T06:58:34.585Z,26.73
2016-09-22T06:59:15.328Z,26.67
2016-09-22T06:59:56.140Z,26.73
2016-09-22T07:00:36.877Z,26.69
2016-09-22T07:01:17.925Z,26.67
2016-09-22T07:01:58.794Z,26.66
2016-09-22T07:02:39.551Z,26.67
2016-09-22T07:03:20.344Z,26.7
2016-09-22T07:04:01.055Z,26.69
2016-09-22T07:04:41.839Z,26.66
2016-09-22T07:05:22.617Z,26.75
2016-09-22T07:06:03.401Z,26.66
2016-09-22T07:06:44.155Z,26.69
2016-09-22T07:07:24.968Z,26.73
2016-09-22T07:08:05.777Z,26.7
2016-09-22T07:08:46.539Z,26.66
2016-09-22T07:09:27.588Z,26.72
2016-09-22T07:10:08.327Z,26.73
2016-09-22T07:10:49.148Z,26.75
2016-09-22T07:11:29.966Z,26.67
2016-09-22T07:12:11.621Z,26.73
2016-09-22T07:12:52.361Z,26.69
2016-09-22T07:13:33.251Z,26.67
2016-09-22T07:14:14.128Z,26.73
2016-09-22T07:14:54.989Z,26.72
2016-09-22T07:15:35.848Z,26.66
2016-09-22T07:16:16.612Z,26.66
2016-09-22T07:16:57.422Z,26.75
2016-09-22T07:17:38.202Z,26.63
2016-09-22T07:18:20.880Z,26.7
2016-09-22T07:19:02.985Z,26.72
2016-09-22T07:19:43.888Z,26.72
2016-09-22T07:20:25.486Z,26.72
2016-09-22T07:21:07.318Z,26.67
2016-09-22T07:21:49.097Z,26.73
2016-09-22T07:22:30.230Z,26.75
2016-09-22T07:23:12.371Z,26.7
2016-09-22T07:23:55.121Z,26.65
2016-09-22T07:24:36.165Z,26.69
2016-09-22T07:25:17.176Z,26.67
2016-09-22T07:25:58.245Z,26.69
2016-09-22T07:26:39.640Z,26.7
2016-09-22T07:27:31.806Z,26.7
2016-09-22T07:29:32.459Z,26.8
2016-09-22T07:30:15.787Z,26.75
2016-09-22T07:30:56.798Z,26.76
2016-09-22T07:31:38.729Z,26.76
2016-09-22T07:32:20.377Z,26.76
2016-09-22T07:33:01.699Z,26.8
2016-09-22T07:33:43.637Z,26.82
2016-09-22T07:34:25.402Z,26.81
2016-09-22T07:35:06.205Z,26.77
2016-09-22T07:35:47.208Z,26.8
2016-09-22T07:36:29.215Z,26.81
2016-09-22T07:37:10.396Z,26.82
2016-09-22T07:39:04.588Z,26.85
2016-09-22T07:39:47.069Z,26.8
2016-09-22T07:40:27.867Z,26.76
2016-09-22T07:41:08.983Z,26.82
2016-09-22T07:41:49.892Z,26.81
2016-09-22T07:42:30.617Z,26.81
2016-09-22T07:43:11.357Z,26.89
2016-09-22T07:43:52.895Z,26.8
2016-09-22T07:44:32.927Z,26.81
2016-09-22T07:45:13.631Z,26.88
2016-09-22T07:45:54.452Z,26.88
2016-09-22T07:46:35.235Z,26.95
2016-09-22T07:47:15.932Z,26.94
2016-09-22T07:47:56.663Z,26.91
2016-09-22T07:48:37.431Z,26.97
2016-09-22T07:49:18.141Z,26.91
2016-09-22T07:49:58.926Z,26.92
2016-09-22T07:50:39.619Z,26.89
2016-09-22T07:51:20.374Z,27
2016-09-22T07:52:01.200Z,26.88
2016-09-22T07:52:41.915Z,26.99
2016-09-22T07:53:22.748Z,27.04
2016-09-22T07:54:03.494Z,26.97
2016-09-22T07:54:44.234Z,26.94
2016-09-22T07:55:25.022Z,26.97
2016-09-22T07:56:05.798Z,27.04
2016-09-22T07:56:46.522Z,26.99
2016-09-22T07:57:27.292Z,27
2016-09-22T07:58:07.988Z,27.06
2016-09-22T07:58:48.753Z,26.99
2016-09-22T07:59:29.503Z,26.97
2016-09-22T08:00:10.225Z,26.95
2016-09-22T08:00:50.996Z,27.02
2016-09-22T08:01:31.764Z,27.06
2016-09-22T08:02:12.553Z,27.02
2016-09-22T08:02:53.268Z,26.97
2016-09-22T08:03:34.071Z,26.92
2016-09-22T08:04:14.891Z,26.92
2016-09-22T08:04:55.622Z,26.92
2016-09-22T08:05:36.384Z,27.04
2016-09-22T08:06:17.130Z,26.99
2016-09-22T08:06:57.915Z,27.07
2016-09-22T08:07:38.690Z,26.92
2016-09-22T08:08:20.404Z,26.94
2016-09-22T08:09:00.237Z,27
2016-09-22T08:09:40.917Z,27.03
2016-09-22T08:10:21.653Z,27.02
2016-09-22T08:11:02.376Z,27.1
2016-09-22T08:11:43.183Z,27.04
2016-09-22T08:12:23.975Z,27.06
2016-09-22T08:13:04.723Z,27.02
2016-09-22T08:13:45.471Z,27.03
2016-09-22T08:14:26.192Z,27.02
2016-09-22T08:17:42.034Z,26.94
2016-09-22T08:18:22.815Z,26.99
2016-09-22T08:19:03.610Z,26.95
2016-09-22T08:19:44.453Z,26.92
2016-09-22T08:20:25.156Z,26.97
2016-09-22T08:21:06.004Z,26.99
2016-09-22T08:21:47.737Z,26.95
2016-09-22T08:22:29.483Z,26.88
2016-09-22T08:23:10.271Z,26.95
2016-09-22T08:23:51.093Z,26.94
2016-09-22T08:24:31.838Z,26.92
2016-09-22T08:25:12.577Z,26.99
2016-09-22T08:25:53.369Z,26.99
2016-09-22T08:26:34.144Z,26.94
2016-09-22T08:27:14.905Z,26.99
2016-09-22T08:27:55.666Z,27
2016-09-22T08:28:36.415Z,26.89
2016-09-22T08:29:17.184Z,26.99
2016-09-22T08:29:57.969Z,26.97
2016-09-22T08:30:38.701Z,27.06
2016-09-22T08:31:19.473Z,26.91
2016-09-22T08:32:00.223Z,26.69
2016-09-22T08:32:40.978Z,26.63
2016-09-22T08:33:22.114Z,26.5
2016-09-22T08:34:02.905Z,26.32
2016-09-22T08:34:43.640Z,26.21
2016-09-22T08:35:24.384Z,26.07
2016-09-22T08:36:05.188Z,26.13
2016-09-22T08:36:45.928Z,25.92
2016-09-22T08:37:26.648Z,25.72
2016-09-22T08:38:07.447Z,25.61
2016-09-22T08:38:48.202Z,25.76
2016-09-22T08:39:28.978Z,25.76
2016-09-22T08:40:09.733Z,25.7
2016-09-22T08:40:51.463Z,25.64
2016-09-22T08:41:32.322Z,25.61
2016-09-22T08:42:13.071Z,25.65
2016-09-22T08:42:53.818Z,25.35
2016-09-22T08:43:35.579Z,25.18
2016-09-22T08:44:16.345Z,25.38
2016-09-22T08:44:57.068Z,25.28
2016-09-22T08:45:37.830Z,25.17
2016-09-22T08:46:19.493Z,25.24
2016-09-22T08:47:00.238Z,25.25
2016-09-22T08:47:41.005Z,25.15
2016-09-22T08:48:21.778Z,25.05
2016-09-22T08:49:02.554Z,25.06
2016-09-22T08:49:43.297Z,25.09
2016-09-22T08:50:24.084Z,25.1
2016-09-22T08:51:04.829Z,25.14
2016-09-22T08:51:45.806Z,25.18
2016-09-22T08:52:27.756Z,25.02
2016-09-22T08:53:27.426Z,25.03